Maipu, Argentina
Current Conditions -  °F | °C
As of 8:00 AM on Thursday 18 Dec 2014 (Local Time) from SAME Reporting Station
Broken Clouds Broken Clouds  
Wind Chill: 72°   Ceiling: 4000
Heat Index: 72°   Visibility: 6mi
Dew Point: 50°   Wind: 2mph
Humidity: 46%   Direction: 140°SE
Pressure: 30"   Gusts: NA
Location:  32.97°S, 68.78°W
Report Text: SAME 181100Z 14002KT 9999 BKN040 22/10 Q1016
Loading
Personal Weather Stations






























Interactive Weather Map New forecast layout! Learn more

10-Day Weather Forecast

Advertisements
Track Severe Weather on mobile